Time;durP1;ratioP1;P1;durP2;ratioP2;P2;SDS_P1;SDS_P2;PMS_P1;PMS_P2;Temp;Humidity;BMP_temperature;BMP_pressure;BME280_temperature;BME280_humidity;BME280_pressure;Samples;Min_cycle;Max_cycle;Signal;HPM_P1;HPM_P2
2022/07/12 00:01:52;;;;;;;1.93;1.53;;;;;;;20.45;40.72;97311.16;4807464;29;20271;-70
2022/07/12 00:04:20;;;;;;;1.50;1.40;;;;;;;20.51;40.51;97324.66;4801444;29;20198;-70
2022/07/12 00:06:47;;;;;;;1.77;1.27;;;;;;;20.32;40.59;97316.56;4814691;29;20221;-70
2022/07/12 00:09:14;;;;;;;2.03;1.30;;;;;;;20.24;40.96;97318.97;4815977;29;20638;-71
2022/07/12 00:11:41;;;;;;;1.70;1.40;;;;;;;20.22;40.42;97323.53;4807427;29;20712;-71
2022/07/12 00:14:11;;;;;;;1.67;1.30;;;;;;;20.19;41.18;97327.25;4802588;29;20215;-69
2022/07/12 00:16:39;;;;;;;1.43;1.33;;;;;;;20.12;41.29;97327.81;4800850;29;20234;-69
2022/07/12 00:19:06;;;;;;;1.83;1.13;;;;;;;19.95;41.25;97325.66;4799283;29;20234;-70
2022/07/12 00:21:33;;;;;;;2.03;1.50;;;;;;;19.85;41.26;97317.69;4801464;29;20215;-70
2022/07/12 00:24:00;;;;;;;2.53;1.40;;;;;;;19.87;41.52;97320.19;4800003;29;20793;-69
2022/07/12 00:26:27;;;;;;;2.67;1.33;;;;;;;20.05;41.24;97326.66;4799827;29;20230;-70
2022/07/12 00:28:56;;;;;;;2.77;1.20;;;;;;;20.05;41.03;97321.38;4800745;29;20279;-69
2022/07/12 00:31:23;;;;;;;1.47;1.10;;;;;;;19.99;41.20;97319.25;4800152;29;20206;-70
2022/07/12 00:33:50;;;;;;;1.63;1.20;;;;;;;20.02;41.14;97319.81;4785387;29;20290;-69
2022/07/12 00:36:17;;;;;;;3.23;1.20;;;;;;;20.01;41.27;97326.03;4797710;29;20717;-70
2022/07/12 00:38:44;;;;;;;1.33;1.23;;;;;;;20.07;41.63;97322.91;4795627;29;20625;-69
2022/07/12 00:41:11;;;;;;;1.23;1.13;;;;;;;20.13;41.21;97327.69;4800227;29;20796;-71
2022/07/12 00:43:38;;;;;;;1.63;1.33;;;;;;;19.97;41.14;97324.59;4799100;29;20218;-71
2022/07/12 00:46:06;;;;;;;2.00;1.30;;;;;;;20.11;41.21;97319.09;4799868;29;20224;-67
2022/07/12 00:48:33;;;;;;;1.40;1.23;;;;;;;20.12;41.18;97319.91;4799662;29;20690;-70
2022/07/12 00:51:01;;;;;;;3.00;1.67;;;;;;;20.02;41.37;97319.81;4800263;29;20848;-69
2022/07/12 00:53:28;;;;;;;1.60;1.50;;;;;;;20.04;40.88;97323.16;4799385;29;20222;-70
2022/07/12 00:55:56;;;;;;;2.33;1.33;;;;;;;20.00;41.07;97321.75;4800515;29;20236;-70
2022/07/12 00:58:24;;;;;;;1.40;1.30;;;;;;;20.01;40.95;97320.78;4799050;29;20217;-70
2022/07/12 01:00:54;;;;;;;1.73;1.33;;;;;;;20.09;40.93;97321.00;4800100;29;20673;-70
2022/07/12 01:03:21;;;;;;;1.43;1.30;;;;;;;20.08;41.18;97324.59;4799729;29;20557;-70
2022/07/12 01:05:49;;;;;;;1.50;1.17;;;;;;;20.13;41.10;97324.25;4791495;29;20642;-70
2022/07/12 01:08:17;;;;;;;1.23;1.13;;;;;;;20.05;41.16;97316.13;4800053;29;20615;-70
2022/07/12 01:10:44;;;;;;;1.33;1.20;;;;;;;20.15;41.31;97319.69;4799518;29;20211;-70
2022/07/12 01:13:11;;;;;;;1.37;1.27;;;;;;;19.98;42.06;97315.78;4800292;29;20759;-70
2022/07/12 01:15:40;;;;;;;5.03;1.67;;;;;;;19.91;42.10;97326.88;4799387;29;20199;-70
2022/07/12 01:18:07;;;;;;;1.40;1.30;;;;;;;19.74;43.06;97314.22;4786576;29;20222;-70
2022/07/12 01:20:34;;;;;;;1.93;1.53;;;;;;;19.52;43.15;97324.72;4799430;29;20257;-70
2022/07/12 01:23:03;;;;;;;2.73;1.50;;;;;;;19.57;43.98;97327.81;4799782;29;20226;-70
2022/07/12 01:25:30;;;;;;;2.70;1.53;;;;;;;19.46;44.26;97332.13;4800005;29;20210;-71
2022/07/12 01:27:57;;;;;;;2.17;1.40;;;;;;;19.26;45.22;97324.91;4798749;29;20214;-70
2022/07/12 01:30:24;;;;;;;2.67;1.73;;;;;;;19.11;45.35;97326.03;4799286;29;20219;-70
2022/07/12 01:32:51;;;;;;;1.23;1.13;;;;;;;19.15;45.65;97322.22;4799660;29;20210;-70
2022/07/12 01:35:21;;;;;;;2.93;1.33;;;;;;;19.14;46.07;97322.34;4799189;29;20230;-69
2022/07/12 01:37:49;;;;;;;2.33;1.40;;;;;;;19.12;46.79;97322.47;4800019;29;20558;-69
2022/07/12 01:40:16;;;;;;;2.13;1.87;;;;;;;19.09;47.00;97330.56;4790485;29;20623;-69
2022/07/12 01:42:44;;;;;;;2.30;1.70;;;;;;;19.06;47.43;97324.72;4799850;29;20216;-70
2022/07/12 01:45:12;;;;;;;1.97;1.77;;;;;;;18.93;47.86;97316.94;4799544;29;20222;-70
2022/07/12 01:47:39;;;;;;;3.57;1.80;;;;;;;18.82;48.29;97302.91;4798938;29;20221;-70
2022/07/12 01:50:09;;;;;;;1.93;1.70;;;;;;;18.80;48.35;97321.41;4799569;29;20317;-70
2022/07/12 01:52:39;;;;;;;1.80;1.60;;;;;;;18.65;48.68;97322.53;4798766;29;20221;-69
2022/07/12 01:55:06;;;;;;;3.63;1.60;;;;;;;18.29;49.96;97326.03;4799297;29;20279;-70
2022/07/12 01:57:34;;;;;;;2.57;1.60;;;;;;;18.17;50.12;97326.06;4799360;29;20582;-70
2022/07/12 02:00:06;;;;;;;3.53;1.80;;;;;;;18.16;50.64;97329.63;4799346;29;20232;-70
2022/07/12 02:02:34;;;;;;;3.00;1.80;;;;;;;18.02;51.13;97329.75;4798507;29;20206;-70
2022/07/12 02:05:02;;;;;;;2.83;2.20;;;;;;;17.64;52.57;97327.22;4800010;29;20220;-70
2022/07/12 02:07:30;;;;;;;3.93;1.93;;;;;;;17.48;53.47;97337.88;4798802;29;20225;-70
2022/07/12 02:09:57;;;;;;;1.80;1.70;;;;;;;17.48;54.47;97326.53;4799227;29;20292;-70
2022/07/12 02:12:24;;;;;;;2.10;1.90;;;;;;;17.45;55.50;97337.25;4799730;29;20293;-70
2022/07/12 02:14:52;;;;;;;2.00;1.77;;;;;;;17.40;56.14;97321.84;4799096;29;20213;-70
2022/07/12 02:17:19;;;;;;;1.77;1.67;;;;;;;17.40;56.44;97334.94;4799659;29;20244;-70
2022/07/12 02:19:46;;;;;;;3.30;2.10;;;;;;;17.30;57.42;97328.66;4798022;29;20584;-70
2022/07/12 02:22:13;;;;;;;2.40;1.80;;;;;;;17.34;57.23;97340.59;4799741;29;20222;-70
2022/07/12 02:24:40;;;;;;;4.10;2.20;;;;;;;17.03;58.06;97333.13;4799466;29;20213;-71
2022/07/12 02:27:07;;;;;;;2.17;1.97;;;;;;;16.71;58.32;97340.47;4794169;29;20211;-70
2022/07/12 02:29:35;;;;;;;2.23;1.77;;;;;;;16.50;58.47;97314.88;4799133;29;20209;-70
2022/07/12 02:32:03;;;;;;;4.07;1.93;;;;;;;16.52;58.43;97339.16;4799126;29;20310;-70
2022/07/12 02:34:30;;;;;;;3.57;1.90;;;;;;;16.46;57.92;97329.06;4799287;29;20214;-70
2022/07/12 02:36:57;;;;;;;5.00;1.90;;;;;;;16.56;57.56;97336.25;4798899;29;20240;-70
2022/07/12 02:39:24;;;;;;;2.67;2.20;;;;;;;16.62;57.20;97338.47;4799235;29;20269;-71
2022/07/12 02:41:51;;;;;;;3.33;2.10;;;;;;;16.59;56.98;97336.03;4800427;29;20268;-70
2022/07/12 02:44:19;;;;;;;3.37;2.27;;;;;;;16.48;57.36;97337.66;4802229;29;20210;-70
2022/07/12 02:46:46;;;;;;;3.13;1.87;;;;;;;16.58;57.25;97342.22;4800143;29;20284;-70
2022/07/12 02:49:14;;;;;;;4.30;2.10;;;;;;;16.78;56.91;97343.53;4802121;29;20227;-70
2022/07/12 02:51:41;;;;;;;3.10;2.10;;;;;;;16.80;56.73;97354.72;4802238;29;20650;-70
2022/07/12 02:54:08;;;;;;;2.20;2.00;;;;;;;17.01;56.65;97348.09;4802154;29;20219;-70
2022/07/12 02:56:35;;;;;;;3.93;2.10;;;;;;;16.62;57.45;97350.69;4801749;29;20760;-70
2022/07/12 02:59:02;;;;;;;5.10;2.10;;;;;;;16.43;57.92;97343.16;4802087;29;20216;-71
2022/07/12 03:01:29;;;;;;;3.87;1.93;;;;;;;16.28;58.34;97349.34;4801802;29;20231;-69
2022/07/12 03:03:57;;;;;;;3.57;2.40;;;;;;;16.06;58.46;97341.19;4802109;29;20258;-70
2022/07/12 03:06:24;;;;;;;3.17;2.10;;;;;;;16.14;58.56;97350.25;4801593;29;20216;-71
2022/07/12 03:08:51;;;;;;;2.20;1.93;;;;;;;16.23;58.80;97354.91;4802254;29;20210;-70
2022/07/12 03:11:18;;;;;;;2.80;2.33;;;;;;;15.99;59.13;97335.50;4801921;29;20207;-69
2022/07/12 03:13:45;;;;;;;2.63;2.03;;;;;;;16.12;59.85;97359.09;4802267;29;20266;-69
2022/07/12 03:16:12;;;;;;;2.70;2.40;;;;;;;16.06;59.44;97362.94;4800515;29;20243;-69
2022/07/12 03:18:40;;;;;;;2.97;2.37;;;;;;;15.89;59.06;97360.53;4802230;29;20275;-69
2022/07/12 03:21:07;;;;;;;2.37;1.93;;;;;;;15.79;59.56;97359.44;4801817;29;20239;-69
2022/07/12 03:23:34;;;;;;;2.83;2.40;;;;;;;15.83;59.46;97373.97;4802006;29;20236;-70
2022/07/12 03:26:02;;;;;;;4.33;2.70;;;;;;;15.60;59.84;97364.09;4802169;29;20342;-70
2022/07/12 03:28:29;;;;;;;6.00;2.87;;;;;;;15.33;59.90;97365.72;4800991;29;20255;-70
2022/07/12 03:30:56;;;;;;;5.33;4.00;;;;;;;15.16;60.07;97356.28;4801972;29;20759;-70
2022/07/12 03:33:24;;;;;;;2.77;2.33;;;;;;;15.13;60.02;97366.03;4801875;29;20687;-70
2022/07/12 03:35:58;;;;;;;2.70;2.50;;;;;;;14.82;60.31;97338.28;4800685;29;20216;-70
2022/07/12 03:38:25;;;;;;;3.57;2.53;;;;;;;15.41;59.53;97373.94;4801766;29;20257;-70
2022/07/12 03:40:52;;;;;;;5.63;2.23;;;;;;;15.68;58.37;97372.31;4791056;29;20259;-70
2022/07/12 03:43:19;;;;;;;5.30;2.77;;;;;;;15.38;58.51;97374.94;4795207;29;20279;-70
2022/07/12 03:45:46;;;;;;;2.63;2.23;;;;;;;15.42;58.82;97366.03;4799841;29;20215;-70
2022/07/12 03:48:13;;;;;;;4.10;2.37;;;;;;;15.54;58.08;97376.69;4801895;29;20211;-71
2022/07/12 03:50:40;;;;;;;2.20;2.00;;;;;;;15.40;58.62;97367.03;4798346;29;20676;-70
2022/07/12 03:53:07;;;;;;;3.90;2.40;;;;;;;15.62;57.70;97370.06;4796688;29;20271;-70
2022/07/12 03:55:34;;;;;;;2.73;2.17;;;;;;;16.26;55.89;97364.28;4800722;29;20264;-70
2022/07/12 03:58:01;;;;;;;4.10;2.20;;;;;;;15.91;54.88;97264.63;4801223;29;20240;-70
2022/07/12 04:00:28;;;;;;;2.90;2.10;;;;;;;16.50;54.68;97362.78;4801209;29;20242;-69
2022/07/12 04:02:55;;;;;;;2.47;2.27;;;;;;;16.65;54.25;97374.03;4800559;29;20239;-70
2022/07/12 04:05:25;;;;;;;4.70;2.40;;;;;;;17.19;52.98;97367.78;4801275;29;20301;-70
2022/07/12 04:07:54;;;;;;;2.63;2.23;;;;;;;17.86;50.96;97367.53;4801037;29;20215;-69
2022/07/12 04:10:21;;;;;;;3.33;2.00;;;;;;;17.71;50.72;97379.06;4800807;29;20302;-70
2022/07/12 04:12:49;;;;;;;5.73;2.10;;;;;;;18.12;51.06;97385.81;4800985;29;20237;-69
2022/07/12 04:15:17;;;;;;;3.53;1.93;;;;;;;18.31;49.76;97380.97;4800754;29;20285;-70
2022/07/12 04:17:44;;;;;;;2.40;2.10;;;;;;;18.33;49.69;97386.94;4801220;29;20248;-70
2022/07/12 04:20:12;;;;;;;5.57;2.13;;;;;;;18.28;50.09;97386.44;4800487;29;20721;-70
2022/07/12 04:22:39;;;;;;;1.77;1.63;;;;;;;18.52;49.78;97389.97;4800914;29;20212;-70
2022/07/12 04:25:08;;;;;;;4.17;2.30;;;;;;;19.05;49.03;97384.25;4800593;29;20213;-70
2022/07/12 04:27:36;;;;;;;2.33;2.13;;;;;;;19.53;47.78;97397.34;4800869;29;20205;-70
2022/07/12 04:30:04;;;;;;;2.40;2.20;;;;;;;19.12;49.27;97401.25;4800746;29;20214;-70
2022/07/12 04:32:31;;;;;;;2.50;2.20;;;;;;;18.75;50.21;97399.66;4800505;29;20194;-70
2022/07/12 04:34:58;;;;;;;2.40;2.17;;;;;;;18.55;50.85;97406.31;4799841;29;20220;-71
2022/07/12 04:37:25;;;;;;;3.33;2.20;;;;;;;18.64;50.52;97397.78;4800364;29;20253;-70
2022/07/12 04:39:52;;;;;;;2.97;1.90;;;;;;;18.65;50.41;97406.47;4800499;29;20678;-71
2022/07/12 04:42:20;;;;;;;2.40;2.20;;;;;;;19.12;49.18;97401.25;4799213;29;20210;-70
2022/07/12 04:44:47;;;;;;;2.37;2.17;;;;;;;19.23;49.04;97397.78;4800464;29;20229;-70
2022/07/12 04:47:14;;;;;;;4.37;2.20;;;;;;;19.09;49.15;97400.63;4800367;29;20205;-70
2022/07/12 04:49:41;;;;;;;3.07;2.23;;;;;;;19.66;47.88;97404.16;4800138;29;20604;-70
2022/07/12 04:52:08;;;;;;;3.03;2.33;;;;;;;19.88;46.39;97406.00;4800625;29;20238;-70
2022/07/12 04:54:34;;;;;;;7.60;2.70;;;;;;;19.80;46.73;97392.59;4799837;29;20210;-70
2022/07/12 04:57:02;;;;;;;3.17;2.10;;;;;;;19.79;46.34;97407.53;4800241;29;20207;-70
2022/07/12 04:59:28;;;;;;;2.77;2.37;;;;;;;19.49;47.34;97410.69;4800341;29;20262;-71
2022/07/12 05:01:55;;;;;;;3.53;2.17;;;;;;;19.68;46.68;97406.69;4798392;29;20243;-71
2022/07/12 05:04:22;;;;;;;2.33;1.93;;;;;;;19.74;46.31;97403.59;4799749;29;20670;-71
2022/07/12 05:06:50;;;;;;;5.07;2.33;;;;;;;19.93;46.15;97414.34;4799670;29;20248;-71
2022/07/12 05:09:17;;;;;;;2.03;1.93;;;;;;;19.81;46.40;97410.03;4800119;29;20224;-70
2022/07/12 05:11:44;;;;;;;3.50;1.93;;;;;;;19.73;45.95;97415.03;4798482;29;20251;-70
2022/07/12 05:14:11;;;;;;;2.77;1.87;;;;;;;19.82;45.47;97411.72;4800112;29;20210;-70
2022/07/12 05:16:38;;;;;;;2.30;1.57;;;;;;;19.60;46.08;97412.50;4806818;29;20249;-71
2022/07/12 05:19:05;;;;;;;3.10;2.00;;;;;;;19.91;45.38;97400.47;4818347;29;20618;-71
2022/07/12 05:21:34;;;;;;;4.13;2.00;;;;;;;19.69;45.88;97411.81;4818178;29;20808;-70
2022/07/12 05:24:03;;;;;;;4.63;2.50;;;;;;;19.77;46.17;97400.72;4817828;29;20212;-69
2022/07/12 05:26:30;;;;;;;3.53;1.87;;;;;;;20.36;45.00;97407.44;4818050;29;20351;-70
2022/07/12 05:28:57;;;;;;;4.90;2.10;;;;;;;20.74;44.11;97404.38;4817429;29;20247;-70
2022/07/12 05:31:25;;;;;;;1.93;1.63;;;;;;;20.67;43.75;97404.03;4818215;29;20240;-69
2022/07/12 05:33:52;;;;;;;2.67;1.50;;;;;;;20.78;43.69;97398.75;4817784;29;20210;-69
2022/07/12 05:36:20;;;;;;;1.67;1.57;;;;;;;21.37;41.93;97401.78;4817680;29;20206;-71
2022/07/12 05:38:47;;;;;;;4.43;2.17;;;;;;;21.82;41.24;97402.41;4817644;29;20686;-69
2022/07/12 05:41:14;;;;;;;3.57;2.23;;;;;;;22.16;40.59;97395.06;4817545;29;20231;-71
2022/07/12 05:43:41;;;;;;;2.97;1.90;;;;;;;22.03;40.27;97400.53;4818123;29;20252;-70
2022/07/12 05:46:08;;;;;;;2.23;1.90;;;;;;;22.07;40.23;97396.69;4817271;29;20211;-70
2022/07/12 05:48:37;;;;;;;1.77;1.50;;;;;;;22.58;39.97;97401.91;4817675;29;20233;-69
2022/07/12 05:53:50;;;;;;;2.20;1.77;;;;;;;;;;4801141;29;20207;-72
2022/07/12 05:56:17;;;;;;;6.90;1.90;;;;;;;23.35;38.12;97402.84;4817532;29;20200;-71
2022/07/12 05:58:44;;;;;;;2.13;1.80;;;;;;;23.57;37.55;97394.63;4817118;29;20215;-71
2022/07/12 06:01:11;;;;;;;2.97;1.77;;;;;;;23.81;37.47;97404.72;4817741;29;20643;-71
2022/07/12 06:03:38;;;;;;;3.93;2.10;;;;;;;23.79;37.13;97385.53;4817088;29;20263;-72
2022/07/12 06:06:05;;;;;;;7.27;2.23;;;;;;;23.77;37.75;97385.66;4817323;29;20536;-70
2022/07/12 06:08:32;;;;;;;4.37;2.03;;;;;;;23.91;35.98;97400.25;4817227;29;20706;-69
2022/07/12 06:10:59;;;;;;;3.87;1.70;;;;;;;24.04;35.80;97401.66;4801006;29;20215;-69
2022/07/12 06:13:26;;;;;;;2.87;1.60;;;;;;;23.99;36.50;97400.34;4817311;29;20257;-71
2022/07/12 06:15:53;;;;;;;2.13;1.43;;;;;;;24.18;36.38;97401.16;4785825;29;20236;-74
2022/07/12 06:18:20;;;;;;;7.13;3.00;;;;;;;24.36;34.97;97397.75;4820883;29;20212;-71
2022/07/12 06:20:47;;;;;;;1.83;1.60;;;;;;;24.28;35.21;97387.06;4819896;29;20239;-70
2022/07/12 06:23:14;;;;;;;4.40;1.60;;;;;;;24.53;35.26;97394.31;4820461;29;20312;-73
2022/07/12 06:25:41;;;;;;;4.83;2.80;;;;;;;24.65;34.86;97383.38;4804089;29;20683;-70
2022/07/12 06:28:10;;;;;;;4.13;2.30;;;;;;;24.75;35.56;97391.31;4820159;29;21005;-72
2022/07/12 06:30:37;;;;;;;3.80;2.20;;;;;;;24.81;35.13;97388.88;4820551;29;20216;-71
2022/07/12 06:33:05;;;;;;;3.33;2.67;;;;;;;24.70;35.29;97389.06;4819813;29;20239;-70
2022/07/12 06:35:33;;;;;;;3.70;1.87;;;;;;;24.89;34.02;97377.53;4804037;29;20209;-70
2022/07/12 06:38:01;;;;;;;4.27;2.50;;;;;;;25.19;33.80;97378.97;4819882;29;20251;-70
2022/07/12 06:40:28;;;;;;;4.50;3.23;;;;;;;25.19;32.68;97369.22;4820008;29;20206;-71
2022/07/12 06:42:55;;;;;;;5.40;1.87;;;;;;;25.35;33.69;97376.50;4819752;29;20590;-71
2022/07/12 06:45:23;;;;;;;9.50;3.23;;;;;;;25.46;33.11;97376.25;4819932;29;20216;-71
2022/07/12 06:47:52;;;;;;;2.37;1.50;;;;;;;24.83;33.06;97372.84;4820015;29;20228;-71
2022/07/12 06:50:20;;;;;;;3.13;1.80;;;;;;;24.17;32.83;97374.84;4819475;29;20608;-70
2022/07/12 06:52:47;;;;;;;3.13;1.50;;;;;;;24.19;33.15;97373.72;4820323;29;20216;-71
2022/07/12 06:55:14;;;;;;;4.50;1.90;;;;;;;24.42;33.02;97383.94;4819466;29;20269;-72
2022/07/12 06:57:42;;;;;;;4.00;1.93;;;;;;;24.52;33.23;97382.06;4819980;29;20253;-71
2022/07/12 07:00:09;;;;;;;3.00;1.97;;;;;;;24.70;32.65;97377.63;4819768;29;20236;-71
2022/07/12 07:02:39;;;;;;;3.20;1.73;;;;;;;24.68;32.51;97383.09;4819736;29;20240;-71
2022/07/12 07:05:07;;;;;;;10.63;3.33;;;;;;;24.84;32.49;97369.19;4819434;29;20204;-71
2022/07/12 07:07:34;;;;;;;4.63;2.20;;;;;;;24.79;32.48;97371.47;4819282;29;20239;-72
2022/07/12 07:10:01;;;;;;;4.43;2.50;;;;;;;24.75;32.49;97354.22;4819900;29;20587;-71
2022/07/12 07:12:29;;;;;;;3.77;1.57;;;;;;;24.80;32.86;97357.25;4819200;29;20602;-69
2022/07/12 07:14:56;;;;;;;5.97;1.57;;;;;;;25.16;31.77;97353.63;4819753;29;20212;-71
2022/07/12 07:17:23;;;;;;;2.53;1.60;;;;;;;25.28;32.19;97367.47;4819080;29;20252;-71
2022/07/12 07:19:50;;;;;;;2.43;2.13;;;;;;;25.11;31.79;97377.09;4803096;29;20693;-71
2022/07/12 07:22:17;;;;;;;3.73;1.60;;;;;;;25.20;31.69;97367.41;4819059;29;20245;-72
2022/07/12 07:24:43;;;;;;;2.80;1.40;;;;;;;25.08;32.12;97366.78;4819074;29;20202;-70
2022/07/12 07:27:13;;;;;;;6.87;2.50;;;;;;;25.17;32.32;97373.84;4803201;29;20814;-71
2022/07/12 07:32:26;;;;;;;3.20;2.13;;;;;;;25.34;31.66;97375.66;4819196;29;20212;-72
2022/07/12 07:34:53;;;;;;;3.07;1.70;;;;;;;25.24;32.22;97371.41;4819512;29;20241;-68
2022/07/12 07:37:20;;;;;;;2.60;1.60;;;;;;;24.89;32.64;97375.72;4819484;29;20205;-70
2022/07/12 07:39:47;;;;;;;7.03;1.70;;;;;;;25.11;32.18;97368.31;4802737;29;20205;-70
2022/07/12 07:42:14;;;;;;;2.60;1.90;;;;;;;25.15;32.78;97362.53;4819062;29;20243;-70
2022/07/12 07:44:41;;;;;;;2.27;1.50;;;;;;;24.94;32.63;97339.00;4819458;29;20209;-72
2022/07/12 07:47:29;;;;;;;3.90;1.67;;;;;;;25.10;32.94;97370.09;4818878;29;20576;-71
2022/07/12 07:49:56;;;;;;;1.83;1.50;;;;;;;25.19;32.52;97376.31;4818828;29;20248;-72
2022/07/12 07:52:23;;;;;;;3.60;1.80;;;;;;;25.10;32.32;97377.25;4819095;29;20275;-71
2022/07/12 07:54:50;;;;;;;3.13;1.40;;;;;;;25.12;32.07;97364.69;4818521;29;20709;-71
2022/07/12 07:57:17;;;;;;;3.23;1.30;;;;;;;25.00;31.60;97374.66;4819271;29;20246;-71
2022/07/12 07:59:44;;;;;;;2.10;1.30;;;;;;;25.05;31.63;97380.34;4818447;29;20213;-70
2022/07/12 08:02:12;;;;;;;5.03;1.20;;;;;;;24.60;32.05;97383.00;4818864;29;20272;-71
2022/07/12 08:04:39;;;;;;;1.60;1.50;;;;;;;24.50;32.19;97365.50;4818852;29;20227;-69
2022/07/12 08:07:06;;;;;;;1.10;1.00;;;;;;;24.17;32.57;97374.84;4818496;29;20292;-70
2022/07/12 08:09:33;;;;;;;2.57;1.60;;;;;;;24.46;33.00;97366.78;4802642;29;20615;-71
2022/07/12 08:12:00;;;;;;;2.00;1.20;;;;;;;24.40;32.50;97370.00;4818373;29;20242;-70
2022/07/12 08:14:27;;;;;;;1.47;1.20;;;;;;;24.46;31.55;97372.06;4819383;29;20215;-70
2022/07/12 08:16:54;;;;;;;2.43;1.27;;;;;;;24.55;31.82;97368.50;4818128;29;20244;-71
2022/07/12 08:19:21;;;;;;;2.40;1.40;;;;;;;24.60;31.58;97371.56;4818893;29;20228;-71
2022/07/12 08:21:49;;;;;;;1.77;1.40;;;;;;;24.52;31.38;97368.81;4818321;29;20278;-71
2022/07/12 08:24:16;;;;;;;3.03;1.20;;;;;;;24.60;32.50;97376.88;4818938;29;20268;-70
2022/07/12 08:26:43;;;;;;;1.90;1.63;;;;;;;24.29;33.17;97378.13;4818735;29;20209;-71
2022/07/12 08:29:10;;;;;;;2.33;1.50;;;;;;;23.73;34.32;97375.50;4818248;29;20200;-70
2022/07/12 08:31:37;;;;;;;2.53;1.50;;;;;;;23.64;34.21;97377.19;4819245;29;20199;-70
2022/07/12 08:34:04;;;;;;;3.37;1.50;;;;;;;23.61;34.75;97369.56;4819034;29;20213;-73
2022/07/12 08:36:31;;;;;;;3.03;1.30;;;;;;;23.55;34.34;97374.59;4819201;29;20209;-71
2022/07/12 08:39:00;;;;;;;5.33;1.40;;;;;;;23.50;34.64;97369.72;4818396;29;20231;-73
2022/07/12 08:41:27;;;;;;;2.60;1.23;;;;;;;23.19;35.11;97368.19;4819463;29;20323;-70
2022/07/12 08:43:55;;;;;;;2.23;1.20;;;;;;;23.34;35.15;97370.31;4819960;29;20218;-70
2022/07/12 08:46:21;;;;;;;2.07;1.30;;;;;;;23.69;33.75;97364.41;4820000;29;20281;-71
2022/07/12 08:48:48;;;;;;;2.87;1.50;;;;;;;24.00;34.11;97352.59;4821891;29;20204;-71
2022/07/12 08:51:20;;;;;;;1.87;1.40;;;;;;;23.54;33.57;97341.16;4788878;29;20561;-72
2022/07/12 08:53:50;;;;;;;2.93;1.30;;;;;;;23.73;33.30;97349.06;4820773;29;20614;-71
2022/07/12 08:56:34;;;;;;;4.83;1.30;;;;;;;23.87;33.09;97354.72;4820049;29;20278;-70
2022/07/12 08:59:16;;;;;;;2.93;1.30;;;;;;;24.13;32.91;97358.41;4822031;29;20679;-70
2022/07/12 09:01:47;;;;;;;2.50;1.43;;;;;;;24.47;32.72;97365.78;4821054;29;20234;-70
2022/07/12 09:04:19;;;;;;;5.00;1.30;;;;;;;24.34;32.79;97349.41;4818438;29;20734;-69
2022/07/12 09:06:47;;;;;;;1.47;1.20;;;;;;;24.01;32.78;97346.31;4801720;29;20200;-70
2022/07/12 09:09:28;;;;;;;1.57;1.20;;;;;;;23.69;33.46;97339.75;4801493;29;20236;-70
2022/07/12 09:11:55;;;;;;;2.87;1.50;;;;;;;23.58;32.93;97347.84;4818365;29;20208;-72
2022/07/12 09:14:23;;;;;;;1.53;1.33;;;;;;;23.65;32.99;97352.44;4818354;29;20203;-72
2022/07/12 09:17:13;;;;;;;1.73;1.13;;;;;;;23.65;33.09;97333.09;4817317;29;20268;-70
2022/07/12 09:19:57;;;;;;;3.27;1.30;;;;;;;23.79;32.88;97309.66;4817637;29;20665;-69
2022/07/12 09:22:24;;;;;;;2.97;1.50;;;;;;;23.66;32.90;97346.16;4801090;29;20262;-70
2022/07/12 09:24:51;;;;;;;4.10;1.40;;;;;;;23.99;33.05;97345.63;4801167;29;20198;-70
2022/07/12 09:27:25;;;;;;;5.97;2.10;;;;;;;24.29;32.49;97346.38;4817722;29;20676;-73
2022/07/12 09:29:52;;;;;;;5.07;2.90;;;;;;;24.29;31.84;97338.44;4816965;29;20218;-71
2022/07/12 09:38:08;;;;;;;4.53;1.47;;;;;;;23.85;30.12;97327.59;4817019;29;20374;-72
2022/07/12 09:40:35;;;;;;;5.33;1.20;;;;;;;24.06;31.30;97320.28;4801459;29;20208;-70
2022/07/12 09:43:04;;;;;;;1.33;1.10;;;;;;;24.39;30.58;97321.50;4817285;29;20231;-71
2022/07/12 09:45:31;;;;;;;2.40;1.30;;;;;;;24.60;30.46;97323.88;4817647;29;20194;-71
2022/07/12 09:47:59;;;;;;;2.33;1.00;;;;;;;24.90;29.97;97323.53;4817179;29;20211;-70
2022/07/12 09:50:28;;;;;;;1.17;1.00;;;;;;;24.48;31.18;97317.97;4817977;29;20213;-72
2022/07/12 09:52:59;;;;;;;1.70;1.30;;;;;;;24.30;30.30;97325.03;4805476;29;20492;-71
2022/07/12 09:55:29;;;;;;;3.07;1.10;;;;;;;23.91;31.13;97308.47;4804642;29;20212;-71
2022/07/12 09:58:01;;;;;;;2.63;1.53;;;;;;;24.01;31.22;97319.00;4821286;29;20688;-70
2022/07/12 10:00:29;;;;;;;1.93;1.20;;;;;;;24.03;31.87;97315.28;4820574;29;20204;-72
2022/07/12 10:02:58;;;;;;;1.20;1.00;;;;;;;23.92;32.57;97318.09;4820419;29;20641;-72
2022/07/12 10:05:26;;;;;;;2.83;1.30;;;;;;;24.41;30.74;97298.38;4820563;29;20204;-71
2022/07/12 10:07:53;;;;;;;1.97;1.10;;;;;;;24.65;30.57;97305.72;4820737;29;20224;-70
2022/07/12 10:10:20;;;;;;;1.60;1.20;;;;;;;24.81;30.11;97311.22;4820301;29;20643;-70
2022/07/12 10:12:47;;;;;;;2.10;1.10;;;;;;;24.20;31.92;97298.63;4820133;29;20204;-70
2022/07/12 10:15:19;;;;;;;2.70;1.50;;;;;;;24.18;31.88;97305.88;4804040;29;20209;-70
2022/07/12 10:17:58;;;;;;;3.60;1.93;;;;;;;24.82;31.72;97297.81;4819584;29;20753;-71
2022/07/12 10:20:26;;;;;;;4.07;1.30;;;;;;;25.08;30.92;97305.81;4819855;29;20212;-70
2022/07/12 10:23:15;;;;;;;3.87;1.17;;;;;;;24.75;31.75;97311.84;4820159;29;20242;-70
2022/07/12 10:25:42;;;;;;;2.50;1.00;;;;;;;24.51;32.11;97298.28;4808098;29;20207;-70
2022/07/12 10:28:10;;;;;;;3.90;1.40;;;;;;;24.88;31.94;97306.97;4803906;29;20669;-70
2022/07/12 10:30:43;;;;;;;5.70;2.80;;;;;;;25.00;31.38;97305.75;4819867;29;20208;-70
2022/07/12 10:33:19;;;;;;;3.57;1.20;;;;;;;24.36;31.39;97297.97;4819929;29;20256;-70
2022/07/12 10:36:05;;;;;;;5.07;1.40;;;;;;;23.92;31.93;97306.69;4820376;29;20266;-70
2022/07/12 10:38:40;;;;;;;4.60;1.50;;;;;;;24.50;30.58;97304.59;4819654;29;20216;-70
2022/07/12 10:41:21;;;;;;;3.63;1.60;;;;;;;24.68;30.83;97300.97;4819673;29;20221;-72
2022/07/12 10:44:04;;;;;;;2.50;1.37;;;;;;;24.62;31.22;97298.09;4819441;29;20249;-71
2022/07/12 10:46:33;;;;;;;2.87;1.27;;;;;;;24.51;30.95;97283.25;4819458;29;20220;-70
2022/07/12 10:49:26;;;;;;;2.33;1.53;;;;;;;24.02;31.92;97292.44;4820048;29;20258;-70
2022/07/12 10:52:24;;;;;;;2.50;1.20;;;;;;;24.39;30.95;97283.59;4819383;29;20204;-70
2022/07/12 10:54:54;;;;;;;2.97;1.80;;;;;;;24.71;30.29;97290.06;4808289;29;20294;-70
2022/07/12 10:57:41;;;;;;;3.57;1.37;;;;;;;24.81;30.27;97292.69;4819942;29;20247;-70
2022/07/12 11:00:13;;;;;;;2.47;1.30;;;;;;;24.78;30.19;97277.91;4819338;29;20231;-72
2022/07/12 11:02:40;;;;;;;2.97;1.37;;;;;;;24.78;30.54;97292.97;4819511;29;20654;-71
2022/07/12 11:05:08;;;;;;;4.33;1.23;;;;;;;24.67;30.77;97298.44;4819771;29;20205;-72
2022/07/12 11:07:35;;;;;;;3.20;1.30;;;;;;;24.75;31.54;97288.81;4819552;29;20215;-71
2022/07/12 11:10:03;;;;;;;1.80;1.20;;;;;;;24.81;31.03;97288.19;4819603;29;20224;-71
2022/07/12 11:12:31;;;;;;;2.53;1.27;;;;;;;24.83;31.28;97258.91;4819465;29;20197;-71
2022/07/12 11:15:00;;;;;;;1.20;1.10;;;;;;;25.30;30.79;97281.47;4819866;29;20545;-71
2022/07/12 11:17:32;;;;;;;4.87;1.43;;;;;;;25.41;29.41;97270.63;4819127;29;20236;-71
2022/07/12 11:20:13;;;;;;;1.30;1.00;;;;;;;25.49;29.61;97297.19;4819744;29;20434;-72
2022/07/12 11:22:41;;;;;;;2.73;1.20;;;;;;;25.54;29.79;97283.47;4819384;29;20237;-71
2022/07/12 11:25:10;;;;;;;3.27;1.63;;;;;;;25.83;28.84;97290.13;4819329;29;20679;-71
2022/07/12 11:27:38;;;;;;;3.00;1.80;;;;;;;26.11;29.04;97280.13;4819766;29;20740;-71
2022/07/12 11:30:08;;;;;;;1.90;1.17;;;;;;;25.70;29.74;97291.53;4819057;29;20640;-71
2022/07/12 11:32:43;;;;;;;2.20;1.47;;;;;;;25.41;30.13;97289.19;4819666;29;20588;-70
2022/07/12 11:35:21;;;;;;;3.47;1.70;;;;;;;25.37;30.26;97282.50;4819287;29;20248;-71
2022/07/12 11:37:53;;;;;;;1.50;1.30;;;;;;;25.08;29.83;97278.50;4819469;29;20206;-73
2022/07/12 11:40:38;;;;;;;3.47;1.20;;;;;;;24.98;30.35;97289.16;4819000;29;20229;-70
2022/07/12 11:43:06;;;;;;;2.53;0.97;;;;;;;24.84;30.26;97281.75;4818982;29;20318;-71
2022/07/12 11:45:34;;;;;;;5.20;1.40;;;;;;;25.13;29.72;97278.84;4819675;29;20209;-71
2022/07/12 11:48:03;;;;;;;3.83;1.63;;;;;;;25.00;30.49;97289.84;4819372;29;20201;-72
2022/07/12 11:50:34;;;;;;;4.03;1.10;;;;;;;25.01;31.01;97280.91;4819169;29;20292;-71
2022/07/12 11:53:04;;;;;;;1.43;1.20;;;;;;;25.21;30.48;97282.41;4818719;29;20270;-70